createdAt,value
2018-07-25T00:01:02.796Z,100692.89
2018-07-25T00:03:28.832Z,100684.63
2018-07-25T00:05:54.865Z,100685.02
2018-07-25T00:08:20.909Z,100691.05
2018-07-25T00:10:46.910Z,100693.20
2018-07-25T00:13:12.922Z,100694.05
2018-07-25T00:15:38.943Z,100695.70
2018-07-25T00:18:04.994Z,100696.92
2018-07-25T00:20:31.013Z,100699.05
2018-07-25T00:22:57.045Z,100697.28
2018-07-25T00:25:23.079Z,100693.83
2018-07-25T00:27:49.067Z,100692.06
2018-07-25T00:30:15.104Z,100695.93
2018-07-25T00:32:41.119Z,100695.42
2018-07-25T00:35:07.151Z,100700.58
2018-07-25T00:37:33.145Z,100699.67
2018-07-25T00:39:59.181Z,100697.44
2018-07-25T00:42:25.224Z,100696.09
2018-07-25T00:44:51.244Z,100696.97
2018-07-25T00:47:17.261Z,100691.30
2018-07-25T00:49:43.274Z,100694.69
2018-07-25T00:52:09.318Z,100694.62
2018-07-25T00:54:35.339Z,100700.25
2018-07-25T00:57:01.374Z,100697.66
2018-07-25T00:59:27.402Z,100697.63
2018-07-25T01:01:53.475Z,100701.94
2018-07-25T01:04:19.489Z,100697.95
2018-07-25T01:06:45.523Z,100700.97
2018-07-25T01:09:11.554Z,100702.23
2018-07-25T01:11:37.599Z,100696.99
2018-07-25T01:14:03.703Z,100700.83
2018-07-25T01:16:29.738Z,100704.63
2018-07-25T01:18:55.736Z,100701.55
2018-07-25T01:21:21.794Z,100704.56
2018-07-25T01:23:47.810Z,100703.20
2018-07-25T01:26:13.827Z,100704.05
2018-07-25T01:28:39.820Z,100710.52
2018-07-25T01:31:05.858Z,100708.73
2018-07-25T01:33:31.858Z,100712.61
2018-07-25T01:35:57.894Z,100714.77
2018-07-25T01:38:23.945Z,100719.08
2018-07-25T01:40:49.953Z,100716.86
2018-07-25T01:43:16.009Z,100712.08
2018-07-25T01:45:42.023Z,100717.64
2018-07-25T01:48:08.052Z,100716.32
2018-07-25T01:50:34.069Z,100718.84
2018-07-25T01:53:00.119Z,100720.53
2018-07-25T01:55:26.166Z,100721.80
2018-07-25T01:57:52.242Z,100721.75
2018-07-25T02:00:18.233Z,100723.45
2018-07-25T02:02:44.294Z,100720.36
2018-07-25T02:05:10.314Z,100722.44
2018-07-25T02:07:36.329Z,100724.57
2018-07-25T02:10:02.323Z,100730.16
2018-07-25T02:12:28.331Z,100734.05
2018-07-25T02:14:54.374Z,100727.08
2018-07-25T02:17:20.410Z,100732.17
2018-07-25T02:19:46.431Z,100731.71
2018-07-25T02:22:12.438Z,100733.81
2018-07-25T02:24:42.590Z,100729.45
2018-07-25T02:27:08.609Z,100734.15
2018-07-25T02:29:34.620Z,100737.05
2018-07-25T02:32:00.656Z,100731.83
2018-07-25T02:34:26.661Z,100732.19
2018-07-25T02:36:52.668Z,100732.56
2018-07-25T02:39:18.684Z,100729.50
2018-07-25T02:41:44.687Z,100730.70
2018-07-25T02:44:10.708Z,100737.54
2018-07-25T02:46:36.814Z,100738.33
2018-07-25T02:49:02.818Z,100743.02
2018-07-25T02:51:28.833Z,100738.70
2018-07-25T02:53:54.843Z,100735.67
2018-07-25T02:56:20.862Z,100744.31
2018-07-25T02:58:46.856Z,100746.44
2018-07-25T03:01:12.892Z,100746.00
2018-07-25T03:03:38.923Z,100749.45
2018-07-25T03:06:04.939Z,100749.00
2018-07-25T03:08:30.978Z,100752.45
2018-07-25T03:10:57.024Z,100758.45
2018-07-25T03:13:23.030Z,100760.58
2018-07-25T03:15:49.090Z,100757.05
2018-07-25T03:18:15.157Z,100758.31
2018-07-25T03:20:41.179Z,100754.86
2018-07-25T03:23:07.193Z,100749.17
2018-07-25T03:25:33.241Z,100750.00
2018-07-25T03:27:59.233Z,100744.38
2018-07-25T03:30:25.230Z,100756.41
2018-07-25T03:32:51.329Z,100759.81
2018-07-25T03:35:17.343Z,100761.90
2018-07-25T03:37:43.328Z,100759.70
2018-07-25T03:40:09.357Z,100762.69
2018-07-25T03:42:35.370Z,100758.30
2018-07-25T03:45:01.382Z,100763.08
2018-07-25T03:47:27.410Z,100759.90
2018-07-25T03:49:53.476Z,100764.14
2018-07-25T03:52:19.495Z,100759.34
2018-07-25T03:54:45.496Z,100762.25
2018-07-25T03:57:11.491Z,100767.39
2018-07-25T03:59:37.503Z,100776.33
2018-07-25T04:02:03.530Z,100779.30
2018-07-25T04:04:29.856Z,100785.73
2018-07-25T04:06:55.884Z,100785.26
2018-07-25T04:09:21.880Z,100786.68
2018-07-25T04:11:47.895Z,100779.00
2018-07-25T04:14:13.930Z,100785.91
2018-07-25T04:18:25.907Z,100781.24
2018-07-25T04:20:51.933Z,100781.63
2018-07-25T04:23:17.959Z,100782.53
2018-07-25T04:25:43.990Z,100780.38
2018-07-25T04:28:10.004Z,100786.94
2018-07-25T04:32:34.364Z,100787.41
2018-07-25T04:35:00.383Z,100790.90
2018-07-25T04:37:26.406Z,100786.63
2018-07-25T04:40:47.975Z,100799.74
2018-07-25T04:43:13.984Z,100802.45
2018-07-25T04:45:40.003Z,100802.53
2018-07-25T04:48:06.011Z,100800.53
2018-07-25T04:50:32.035Z,100803.20
2018-07-25T04:52:58.027Z,100801.00
2018-07-25T04:55:24.044Z,100794.59
2018-07-25T04:57:50.050Z,100803.34
2018-07-25T05:00:16.080Z,100801.62
2018-07-25T05:02:42.096Z,100805.98
2018-07-25T05:05:08.127Z,100804.21
2018-07-25T05:07:34.136Z,100806.80
2018-07-25T05:10:00.139Z,100808.53
2018-07-25T05:12:26.212Z,100812.02
2018-07-25T05:14:52.217Z,100812.53
2018-07-25T05:17:18.270Z,100813.91
2018-07-25T05:19:44.640Z,100812.68
2018-07-25T05:22:10.683Z,100816.61
2018-07-25T05:24:36.680Z,100821.00
2018-07-25T05:28:16.292Z,100817.63
2018-07-25T05:30:42.310Z,100822.95
2018-07-25T05:33:08.322Z,100829.03
2018-07-25T05:35:34.339Z,100827.81
2018-07-25T05:38:00.361Z,100830.08
2018-07-25T05:40:26.362Z,100836.20
2018-07-25T05:42:52.393Z,100835.91
2018-07-25T05:45:18.410Z,100840.73
2018-07-25T05:47:44.400Z,100846.02
2018-07-25T05:50:10.420Z,100847.39
2018-07-25T05:52:36.469Z,100855.47
2018-07-25T05:56:52.561Z,100854.52
2018-07-25T05:59:18.571Z,100853.42
2018-07-25T06:01:44.575Z,100854.03
2018-07-25T06:04:10.615Z,100855.01
2018-07-25T06:06:36.680Z,100861.98
2018-07-25T06:09:02.704Z,100863.89
2018-07-25T06:11:28.716Z,100861.85
2018-07-25T06:13:54.730Z,100868.53
2018-07-25T06:16:20.762Z,100864.75
2018-07-25T06:18:46.790Z,100860.55
2018-07-25T06:21:12.806Z,100869.31
2018-07-25T06:23:38.837Z,100865.55
2018-07-25T06:26:05.001Z,100867.35
2018-07-25T06:28:30.899Z,100863.50
2018-07-25T06:34:20.160Z,100866.33
2018-07-25T06:36:46.175Z,100869.43
2018-07-25T06:39:12.192Z,100873.86
2018-07-25T06:41:38.210Z,100877.41
2018-07-25T06:44:04.207Z,100881.84
2018-07-25T06:46:30.252Z,100882.35
2018-07-25T06:48:56.318Z,100881.60
2018-07-25T06:51:22.615Z,100879.91
2018-07-25T06:53:48.652Z,100876.94
2018-07-25T06:56:14.705Z,100873.94
2018-07-25T06:58:41.095Z,100879.65
2018-07-25T07:01:07.123Z,100872.30
2018-07-25T07:03:33.144Z,100874.06
2018-07-25T07:05:59.224Z,100879.72
2018-07-25T07:08:25.192Z,100879.34
2018-07-25T07:10:51.215Z,100878.94
2018-07-25T07:13:17.234Z,100884.17
2018-07-25T07:15:43.360Z,100889.42
2018-07-25T07:18:09.394Z,100888.55
2018-07-25T07:20:35.413Z,100889.46
2018-07-25T07:23:01.419Z,100894.70
2018-07-25T07:25:27.456Z,100892.53
2018-07-25T07:27:53.495Z,100889.94
2018-07-25T07:30:19.506Z,100891.70
2018-07-25T07:32:45.507Z,100888.21
2018-07-25T07:35:11.560Z,100886.47
2018-07-25T07:37:37.604Z,100886.45
2018-07-25T07:40:03.651Z,100885.55
2018-07-25T07:42:29.667Z,100882.03
2018-07-25T07:44:55.673Z,100890.34
2018-07-25T07:47:21.668Z,100882.02
2018-07-25T07:49:47.678Z,100885.03
2018-07-25T07:52:13.710Z,100888.05
2018-07-25T07:54:39.746Z,100887.55
2018-07-25T07:57:06.053Z,100890.55
2018-07-25T07:59:32.160Z,100889.66
2018-07-25T08:01:58.144Z,100891.31
2018-07-25T08:04:24.202Z,100889.10
2018-07-25T08:06:50.224Z,100887.72
2018-07-25T08:09:16.259Z,100886.36
2018-07-25T08:11:42.290Z,100882.80
2018-07-25T08:14:08.295Z,100883.56
2018-07-25T08:16:34.324Z,100887.42
2018-07-25T08:19:00.401Z,100884.30
2018-07-25T08:21:26.408Z,100887.70
2018-07-25T08:23:52.429Z,100884.52
2018-07-25T08:26:18.691Z,100891.39
2018-07-25T08:28:44.735Z,100890.84
2018-07-25T08:31:10.734Z,100894.19
2018-07-25T08:33:36.744Z,100890.02
2018-07-25T08:36:02.862Z,100888.94
2018-07-25T08:38:28.901Z,100884.83
2018-07-25T08:40:55.287Z,100883.23
2018-07-25T08:43:21.292Z,100886.07
2018-07-25T08:45:47.637Z,100880.61
2018-07-25T08:48:13.664Z,100879.12
2018-07-25T08:50:39.728Z,100874.53
2018-07-25T08:53:05.765Z,100877.97
2018-07-25T08:55:31.809Z,100880.86
2018-07-25T08:57:57.848Z,100881.61
2018-07-25T09:00:23.913Z,100874.48
2018-07-25T09:02:49.920Z,100872.27
2018-07-25T09:05:15.961Z,100878.66
2018-07-25T09:07:42.069Z,100867.55
2018-07-25T09:10:08.073Z,100871.43
2018-07-25T09:12:34.114Z,100875.57
2018-07-25T09:15:00.176Z,100869.69
2018-07-25T09:17:26.251Z,100872.48
2018-07-25T09:19:52.443Z,100873.73
2018-07-25T09:22:18.641Z,100867.66
2018-07-25T09:24:44.636Z,100866.57
2018-07-25T09:27:10.686Z,100869.53
2018-07-25T09:29:36.694Z,100868.93
2018-07-25T09:32:02.724Z,100868.76
2018-07-25T09:34:28.890Z,100872.08
2018-07-25T09:36:54.858Z,100871.80
2018-07-25T09:39:20.991Z,100868.44
2018-07-25T09:41:47.046Z,100871.17
2018-07-25T09:44:13.081Z,100863.93
2018-07-25T09:46:39.252Z,100867.17
2018-07-25T09:49:05.130Z,100864.67
2018-07-25T09:51:31.207Z,100866.12
2018-07-25T09:53:57.244Z,100867.71
2018-07-25T09:56:23.297Z,100856.39
2018-07-25T09:58:49.331Z,100856.55
2018-07-25T10:01:15.381Z,100856.76
2018-07-25T10:03:41.619Z,100859.62
2018-07-25T10:06:07.673Z,100854.52
2018-07-25T10:08:33.743Z,100854.61
2018-07-25T10:10:59.797Z,100851.52
2018-07-25T10:13:25.877Z,100849.75
2018-07-25T10:15:51.960Z,100844.97
2018-07-25T10:18:18.055Z,100852.19
2018-07-25T10:20:44.126Z,100849.11
2018-07-25T10:23:10.217Z,100851.39
2018-07-25T10:25:36.405Z,100846.55
2018-07-25T10:28:02.526Z,100847.27
2018-07-25T10:30:28.647Z,100850.26
2018-07-25T10:32:55.047Z,100848.08
2018-07-25T10:35:21.051Z,100847.05
2018-07-25T10:37:47.129Z,100847.13
2018-07-25T10:40:13.198Z,100838.00
2018-07-25T10:42:39.348Z,100845.25
2018-07-25T10:45:05.515Z,100839.70
2018-07-25T10:47:31.647Z,100839.86
2018-07-25T10:49:57.773Z,100833.15
2018-07-25T10:52:24.208Z,100834.39
2018-07-25T10:54:50.138Z,100832.55
2018-07-25T10:57:16.308Z,100825.42
2018-07-25T10:59:42.380Z,100829.45
2018-07-25T11:02:08.534Z,100838.81
2018-07-25T11:04:34.936Z,100837.49
2018-07-25T11:07:01.021Z,100834.27
2018-07-25T11:09:27.099Z,100832.20
2018-07-25T11:11:53.207Z,100836.78
2018-07-25T11:14:19.280Z,100825.65
2018-07-25T11:16:45.440Z,100820.86
2018-07-25T11:19:11.602Z,100821.41
2018-07-25T11:21:37.913Z,100819.70
2018-07-25T11:24:04.192Z,100821.25
2018-07-25T11:26:30.248Z,100822.12
2018-07-25T11:28:56.655Z,100818.58
2018-07-25T11:31:22.709Z,100814.30
2018-07-25T11:33:48.958Z,100814.19
2018-07-25T11:36:15.082Z,100816.37
2018-07-25T11:38:41.126Z,100817.41
2018-07-25T11:41:07.437Z,100811.03
2018-07-25T11:43:33.662Z,100812.80
2018-07-25T11:45:59.769Z,100813.14
2018-07-25T11:48:26.327Z,100807.80
2018-07-25T11:50:52.419Z,100809.73
2018-07-25T11:53:18.454Z,100807.03
2018-07-25T11:55:44.911Z,100800.42
2018-07-25T11:58:11.060Z,100800.13
2018-07-25T12:00:37.421Z,100795.02
2018-07-25T12:03:03.463Z,100797.38
2018-07-25T12:05:29.554Z,100797.42
2018-07-25T12:07:55.624Z,100795.62
2018-07-25T12:10:21.743Z,100794.01
2018-07-25T12:12:47.830Z,100795.57
2018-07-25T12:15:13.984Z,100787.98
2018-07-25T12:17:40.066Z,100794.03
2018-07-25T12:20:06.225Z,100792.70
2018-07-25T12:22:33.512Z,100794.21
2018-07-25T12:25:00.817Z,100797.81
2018-07-25T12:27:26.954Z,100797.60
2018-07-25T12:29:53.121Z,100793.30
2018-07-25T12:32:19.324Z,100794.18
2018-07-25T12:34:45.615Z,100794.59
2018-07-25T12:37:11.803Z,100793.00
2018-07-25T12:39:37.907Z,100789.74
2018-07-25T12:42:04.035Z,100784.77
2018-07-25T12:44:30.148Z,100785.59
2018-07-25T12:46:56.350Z,100783.18
2018-07-25T12:49:22.488Z,100774.30
2018-07-25T12:51:48.672Z,100783.23
2018-07-25T12:54:14.856Z,100782.85
2018-07-25T12:56:40.935Z,100784.58
2018-07-25T12:59:07.033Z,100779.53
2018-07-25T13:01:33.141Z,100771.95
2018-07-25T13:03:59.216Z,100775.38
2018-07-25T13:06:25.302Z,100778.25
2018-07-25T13:08:51.381Z,100778.66
2018-07-25T13:11:17.458Z,100776.44
2018-07-25T13:13:43.518Z,100773.95
2018-07-25T13:16:09.578Z,100780.13
2018-07-25T13:18:35.648Z,100775.41
2018-07-25T13:21:01.696Z,100780.11
2018-07-25T13:24:28.930Z,100779.00
2018-07-25T13:26:55.038Z,100771.82
2018-07-25T13:29:21.111Z,100774.84
2018-07-25T13:31:47.203Z,100768.66
2018-07-25T13:34:13.305Z,100767.53
2018-07-25T13:36:39.389Z,100759.94
2018-07-25T13:39:05.469Z,100756.44
2018-07-25T13:41:31.534Z,100773.42
2018-07-25T13:43:57.620Z,100759.56
2018-07-25T13:46:23.910Z,100752.98
2018-07-25T13:48:49.857Z,100756.74
2018-07-25T13:51:15.936Z,100748.61
2018-07-25T13:53:42.022Z,100749.56
2018-07-25T13:56:08.173Z,100746.38
2018-07-25T13:58:34.240Z,100749.26
2018-07-25T14:01:00.305Z,100746.45
2018-07-25T14:03:26.457Z,100747.70
2018-07-25T14:05:52.617Z,100741.58
2018-07-25T14:08:18.661Z,100746.36
2018-07-25T14:10:45.601Z,100744.31
2018-07-25T14:13:11.662Z,100745.25
2018-07-25T14:15:37.744Z,100749.59
2018-07-25T14:18:03.840Z,100744.06
2018-07-25T14:20:29.909Z,100744.22
2018-07-25T14:22:55.956Z,100749.66
2018-07-25T14:25:22.114Z,100746.63
2018-07-25T14:27:48.194Z,100752.63
2018-07-25T14:30:14.360Z,100750.14
2018-07-25T14:32:40.388Z,100749.61
2018-07-25T14:35:06.477Z,100745.66
2018-07-25T14:37:32.553Z,100754.94
2018-07-25T14:39:58.655Z,100751.44
2018-07-25T14:42:24.707Z,100759.43
2018-07-25T14:44:50.778Z,100751.80
2018-07-25T14:47:17.015Z,100753.31
2018-07-25T14:49:42.913Z,100754.30
2018-07-25T14:52:08.975Z,100753.31
2018-07-25T14:54:35.038Z,100754.69
2018-07-25T14:57:01.229Z,100745.70
2018-07-25T14:59:27.241Z,100745.32
2018-07-25T15:01:53.366Z,100749.37
2018-07-25T15:04:19.442Z,100752.88
2018-07-25T15:06:45.601Z,100755.46
2018-07-25T15:09:11.662Z,100751.91
2018-07-25T15:11:37.718Z,100753.30
2018-07-25T15:14:03.789Z,100750.59
2018-07-25T15:16:29.864Z,100743.58
2018-07-25T15:18:55.926Z,100750.75
2018-07-25T15:21:21.989Z,100748.62
2018-07-25T15:23:48.105Z,100746.63
2018-07-25T15:26:14.123Z,100751.00
2018-07-25T15:28:40.214Z,100747.44
2018-07-25T15:31:06.297Z,100744.23
2018-07-25T15:33:32.461Z,100747.33
2018-07-25T15:35:58.616Z,100740.12
2018-07-25T15:38:24.838Z,100745.76
2018-07-25T15:40:50.897Z,100743.38
2018-07-25T15:43:16.978Z,100743.39
2018-07-25T15:45:43.038Z,100745.39
2018-07-25T15:48:09.122Z,100747.67
2018-07-25T15:50:35.191Z,100746.69
2018-07-25T15:53:01.375Z,100739.61
2018-07-25T15:55:27.436Z,100745.34
2018-07-25T15:57:53.620Z,100754.15
2018-07-25T16:00:19.682Z,100746.48
2018-07-25T16:02:45.743Z,100750.62
2018-07-25T16:05:11.867Z,100751.06
2018-07-25T16:07:37.945Z,100757.45
2018-07-25T16:10:04.055Z,100750.41
2018-07-25T16:12:30.118Z,100755.56
2018-07-25T16:14:56.174Z,100758.59
2018-07-25T16:17:22.359Z,100761.66
2018-07-25T16:19:48.469Z,100751.66
2018-07-25T16:22:14.522Z,100748.33
2018-07-25T16:24:40.652Z,100746.41
2018-07-25T16:27:06.785Z,100743.91
2018-07-25T16:29:32.846Z,100750.50
2018-07-25T16:31:58.906Z,100748.63
2018-07-25T16:34:25.012Z,100746.72
2018-07-25T16:36:51.059Z,100742.05
2018-07-25T16:39:17.138Z,100742.47
2018-07-25T16:41:43.220Z,100748.86
2018-07-25T16:44:09.278Z,100747.27
2018-07-25T16:46:35.430Z,100741.27
2018-07-25T16:49:01.521Z,100745.70
2018-07-25T16:51:27.580Z,100744.58
2018-07-25T16:53:53.646Z,100743.11
2018-07-25T16:56:19.744Z,100748.00
2018-07-25T16:58:45.806Z,100755.56
2018-07-25T17:01:12.147Z,100752.55
2018-07-25T17:03:38.231Z,100756.45
2018-07-25T17:06:04.304Z,100759.68
2018-07-25T17:08:30.358Z,100761.75
2018-07-25T17:10:56.406Z,100756.44
2018-07-25T17:13:22.462Z,100771.51
2018-07-25T17:15:48.513Z,100769.44
2018-07-25T17:18:14.631Z,100767.97
2018-07-25T17:20:40.693Z,100769.87
2018-07-25T17:23:06.759Z,100780.11
2018-07-25T17:25:32.849Z,100792.31
2018-07-25T17:27:58.914Z,100787.48
2018-07-25T17:30:25.001Z,100785.98
2018-07-25T17:32:51.069Z,100784.61
2018-07-25T17:35:17.165Z,100785.16
2018-07-25T17:37:43.183Z,100785.30
2018-07-25T17:40:09.241Z,100775.84
2018-07-25T17:42:35.294Z,100773.86
2018-07-25T17:45:01.362Z,100784.77
2018-07-25T17:47:27.417Z,100786.09
2018-07-25T17:49:53.489Z,100784.69
2018-07-25T17:52:19.558Z,100785.20
2018-07-25T17:54:45.611Z,100789.22
2018-07-25T17:57:11.662Z,100796.02
2018-07-25T17:59:37.743Z,100792.92
2018-07-25T18:02:03.811Z,100802.48
2018-07-25T18:04:29.874Z,100798.22
2018-07-25T18:06:56.003Z,100807.57
2018-07-25T18:09:22.063Z,100808.08
2018-07-25T18:11:48.129Z,100820.13
2018-07-25T18:14:14.192Z,100820.33
2018-07-25T18:16:40.278Z,100825.02
2018-07-25T18:19:06.372Z,100830.17
2018-07-25T18:21:32.471Z,100832.11
2018-07-25T18:23:58.537Z,100841.13
2018-07-25T18:26:24.606Z,100852.30
2018-07-25T18:28:50.670Z,100852.50
2018-07-25T18:31:16.737Z,100856.78
2018-07-25T18:33:42.798Z,100856.95
2018-07-25T18:36:08.857Z,100861.95
2018-07-25T18:38:34.925Z,100862.58
2018-07-25T18:41:00.991Z,100856.69
2018-07-25T18:43:27.033Z,100863.78
2018-07-25T18:45:55.136Z,100866.92
2018-07-25T18:48:21.187Z,100873.19
2018-07-25T18:50:47.237Z,100879.38
2018-07-25T18:53:13.279Z,100878.67
2018-07-25T18:55:39.326Z,100878.77
2018-07-25T18:58:05.379Z,100885.41
2018-07-25T19:00:31.419Z,100887.70
2018-07-25T19:02:57.486Z,100888.20
2018-07-25T19:05:23.690Z,100883.07
2018-07-25T19:07:49.693Z,100891.53
2018-07-25T19:10:15.733Z,100894.27
2018-07-25T19:12:41.761Z,100898.30
2018-07-25T19:15:07.798Z,100891.41
2018-07-25T19:17:33.869Z,100894.09
2018-07-25T19:19:59.902Z,100893.27
2018-07-25T19:22:25.938Z,100895.09
2018-07-25T19:24:51.984Z,100900.39
2018-07-25T19:27:18.026Z,100901.75
2018-07-25T19:29:44.062Z,100902.23
2018-07-25T19:32:10.106Z,100905.78
2018-07-25T19:34:36.177Z,100899.72
2018-07-25T19:37:02.214Z,100906.26
2018-07-25T19:39:28.246Z,100908.04
2018-07-25T19:46:58.403Z,100897.67
2018-07-25T19:49:24.439Z,100902.48
2018-07-25T19:51:50.481Z,100899.44
2018-07-25T19:54:16.517Z,100901.66
2018-07-25T19:56:42.558Z,100895.13
2018-07-25T19:59:08.598Z,100899.92
2018-07-25T20:01:34.642Z,100907.77
2018-07-25T20:04:00.682Z,100901.25
2018-07-25T20:06:26.730Z,100900.81
2018-07-25T20:08:52.821Z,100901.26
2018-07-25T20:11:18.862Z,100906.06
2018-07-25T20:13:53.675Z,100906.06
2018-07-25T20:16:19.746Z,100897.38
2018-07-25T20:18:45.781Z,100898.67
2018-07-25T20:21:11.818Z,100892.57
2018-07-25T20:23:37.854Z,100896.45
2018-07-25T20:26:03.890Z,100906.89
2018-07-25T20:28:29.927Z,100900.34
2018-07-25T20:30:55.966Z,100901.19
2018-07-25T20:33:22.006Z,100899.91
2018-07-25T20:38:20.554Z,100898.55
2018-07-25T20:40:46.596Z,100898.56
2018-07-25T20:43:12.634Z,100912.47
2018-07-25T20:45:38.672Z,100906.34
2018-07-25T20:48:04.811Z,100908.08
2018-07-25T20:50:30.842Z,100908.08
2018-07-25T20:52:56.881Z,100908.92
2018-07-25T20:55:22.914Z,100905.86
2018-07-25T20:57:48.958Z,100906.68
2018-07-25T21:00:15.048Z,100908.40
2018-07-25T21:02:41.070Z,100900.11
2018-07-25T21:05:07.169Z,100906.59
2018-07-25T21:07:33.211Z,100911.36
2018-07-25T21:09:59.254Z,100914.39
2018-07-25T21:12:25.294Z,100912.19
2018-07-25T21:14:51.334Z,100916.97
2018-07-25T21:17:17.374Z,100913.48
2018-07-25T21:19:43.419Z,100920.38
2018-07-25T21:22:09.454Z,100921.20
2018-07-25T21:24:35.537Z,100918.14
2018-07-25T21:27:01.576Z,100915.50
2018-07-25T21:29:27.617Z,100922.85
2018-07-25T21:31:53.674Z,100925.01
2018-07-25T21:34:19.750Z,100924.11
2018-07-25T21:36:45.801Z,100927.58
2018-07-25T21:39:11.829Z,100923.69
2018-07-25T21:41:37.911Z,100930.16
2018-07-25T21:44:03.946Z,100938.44
2018-07-25T21:46:29.980Z,100940.60
2018-07-25T21:50:11.712Z,100935.38
2018-07-25T21:52:37.894Z,100931.84
2018-07-25T21:55:17.358Z,100937.92
2018-07-25T21:57:43.418Z,100933.19
2018-07-25T22:00:09.455Z,100933.14
2018-07-25T22:02:35.609Z,100931.39
2018-07-25T22:05:01.659Z,100932.23
2018-07-25T22:07:28.417Z,100931.36
2018-07-25T22:09:54.549Z,100927.43
2018-07-25T22:12:20.588Z,100930.89
2018-07-25T22:14:46.628Z,100930.05
2018-07-25T22:18:16.152Z,100925.67
2018-07-25T22:20:42.182Z,100922.16
2018-07-25T22:23:08.213Z,100923.47
2018-07-25T22:25:34.250Z,100916.91
2018-07-25T22:28:00.291Z,100918.57
2018-07-25T22:30:26.404Z,100919.42
2018-07-25T22:34:51.695Z,100922.39
2018-07-25T22:37:17.730Z,100921.50
2018-07-25T22:39:43.758Z,100918.37
2018-07-25T22:42:09.789Z,100918.78
2018-07-25T22:44:35.848Z,100925.66
2018-07-25T22:47:01.918Z,100922.10
2018-07-25T22:49:27.946Z,100917.77
2018-07-25T22:51:53.974Z,100922.09
2018-07-25T22:54:20.006Z,100920.69
2018-07-25T22:56:46.047Z,100918.91
2018-07-25T22:59:12.110Z,100914.94
2018-07-25T23:01:38.153Z,100914.89
2018-07-25T23:04:04.188Z,100919.59
2018-07-25T23:06:30.226Z,100921.73
2018-07-25T23:08:56.258Z,100911.67
2018-07-25T23:11:22.294Z,100912.92
2018-07-25T23:13:48.321Z,100909.81
2018-07-25T23:16:14.353Z,100911.92
2018-07-25T23:18:40.385Z,100917.54
2018-07-25T23:21:06.533Z,100913.56
2018-07-25T23:23:32.576Z,100917.38
2018-07-25T23:25:58.887Z,100910.86
2018-07-25T23:28:24.925Z,100913.40
2018-07-25T23:30:50.964Z,100918.59
2018-07-25T23:33:17.094Z,100911.18
2018-07-25T23:35:43.159Z,100910.69
2018-07-25T23:38:09.217Z,100912.40
2018-07-25T23:40:35.273Z,100907.11
2018-07-25T23:43:01.307Z,100906.19
2018-07-25T23:45:27.338Z,100905.70
2018-07-25T23:47:53.370Z,100896.95
2018-07-25T23:50:19.409Z,100899.52
2018-07-25T23:52:45.440Z,100899.89
2018-07-25T23:55:11.514Z,100900.33
2018-07-25T23:57:37.542Z,100904.22
